WetterOnline ( http://www.wetteronline.de )

Wetter aktuell Regensburg

Aktuelles Wetter: Regensburg/Oberhub (371m)

6-stündlich | Neueste Meldungen
Ortszeit Temperatur Wetter
So, 19.08. 8:00 16.5° C wolkenlos
So, 19.08. 2:00 16.9° C wolkenlos
Sa, 18.08. 20:00 21.8° C bewölkt
Sa, 18.08. 14:00 29.2° C wolkenlos
Sa, 18.08. 8:00 18.1° C wolkenlos
Sa, 18.08. 2:00 18.3° C bewölkt
Fr, 17.08. 20:00 27.4° C wolkenlos
Fr, 17.08. 14:00 31.8° C wolkenlos
Ortszeit Temperatur Wetter
So, 19.08. 11:30 28.6° C leicht bewölkt
So, 19.08. 11:10 27.7° C leicht bewölkt
So, 19.08. 11:00 26.5° C leicht bewölkt
So, 19.08. 10:50 26.5° C leicht bewölkt
So, 19.08. 10:40 25.9° C leicht bewölkt
So, 19.08. 10:30 25.8° C leicht bewölkt
So, 19.08. 10:00 24.0° C wolkenlos
So, 19.08. 9:30 21.9° C wolkenlos
So, 19.08. 9:00 19.6° C wolkenlos
So, 19.08. 8:30 17.5° C wolkenlos
So, 19.08. 8:00 16.5° C wolkenlos
Ortszeit Relative Feuchte Sichtweite
So, 19.08. 8:00 92% 11 km
So, 19.08. 2:00 93% 12 km
Sa, 18.08. 20:00 67% 40 km
Sa, 18.08. 14:00 35% 26 km
Sa, 18.08. 8:00 76% 30 km
Sa, 18.08. 2:00 66% 30 km
Fr, 17.08. 20:00 32% 40 km
Fr, 17.08. 14:00 24% 30 km
Ortszeit Relative Feuchte Sichtweite
So, 19.08. 11:30 43% 27 km
So, 19.08. 11:10 44% -
So, 19.08. 11:00 47% 22 km
So, 19.08. 10:50 47% -
So, 19.08. 10:40 50% -
So, 19.08. 10:30 51% 25 km
So, 19.08. 10:00 62% 20 km
So, 19.08. 9:30 67% 17 km
So, 19.08. 9:00 80% 15 km
So, 19.08. 8:30 88% 13 km
So, 19.08. 8:00 92% 11 km
Ortszeit Niederschlagsmenge Niederschlagsart
So, 19.08. 8:00 0.0 l/m2 in 12 Std. -
So, 19.08. 2:00 0.0 l/m2 in 6 Std. -
Sa, 18.08. 20:00 0.5 l/m2 in 12 Std. Regen
Sa, 18.08. 14:00 0.0 l/m2 in 6 Std. -
Sa, 18.08. 8:00 0.0 l/m2 in 12 Std. -
Sa, 18.08. 2:00 0.0 l/m2 in 6 Std. -
Fr, 17.08. 20:00 0.1 l/m2 in 12 Std. Regen
Fr, 17.08. 14:00 0.0 l/m2 in 6 Std. -
Ortszeit Niederschlagsmenge Niederschlagsart
So, 19.08. 11:30 0.0 l/m2 in 1 Std. -
So, 19.08. 11:10 keine Meldung -
So, 19.08. 11:00 0.0 l/m2 in 1 Std. -
So, 19.08. 10:50 keine Meldung -
So, 19.08. 10:40 keine Meldung -
So, 19.08. 10:30 0.0 l/m2 in 1 Std. -
So, 19.08. 10:00 0.0 l/m2 in 1 Std. -
So, 19.08. 9:30 0.0 l/m2 in 1 Std. -
So, 19.08. 9:00 0.0 l/m2 in 1 Std. -
So, 19.08. 8:30 0.0 l/m2 in 1 Std. -
So, 19.08. 8:00 0.0 l/m2 in 1 Std. -
Ortszeit Stärke Spitze Richtung
km/h Bft. km/h Grad Sektor
So, 19.08. 8:00 6 1 15 350° N
So, 19.08. 2:00 7 2 14 350° N
Sa, 18.08. 20:00 11 2 25 30° NO
Sa, 18.08. 14:00 6 1 15 130° SO
Sa, 18.08. 8:00 7 2 19 340° N
Sa, 18.08. 2:00 6 1 9 20° N
Fr, 17.08. 20:00 7 2 19 120° SO
Fr, 17.08. 14:00 4 1 25 280° W
Ortszeit Stärke Spitze Richtung
km/h Bft. km/h Grad Sektor
So, 19.08. 11:30 6 1 11 300° NW
So, 19.08. 11:10 4 1 - 240° SW
So, 19.08. 11:00 4 1 7 330° NW
So, 19.08. 10:50 4 1 - 330° NW
So, 19.08. 10:40 4 1 - 290° W
So, 19.08. 10:30 4 1 7 280° W
So, 19.08. 10:00 4 1 7 290° W
So, 19.08. 9:30 4 1 7 340° N
So, 19.08. 9:00 4 1 11 340° N
So, 19.08. 8:30 6 1 9 330° NW
So, 19.08. 8:00 6 1 11 350° N
Ortszeit Untergrenze Bedeckung Gattung
total tief tief mittel hoch
So, 19.08. 8:00 - 0/8 0/8 - - -
So, 19.08. 2:00 - 0/8 0/8 - - -
Sa, 18.08. 20:00 3000 m 7/8 7/8 - - -
Sa, 18.08. 14:00 - 0/8 0/8 - - -
Sa, 18.08. 8:00 8400 m 0/8 0/8 - - -
Sa, 18.08. 2:00 6000 m 7/8 7/8 - - -
Fr, 17.08. 20:00 10500 m 0/8 0/8 - - -
Fr, 17.08. 14:00 - 0/8 0/8 - - -
Ortszeit Bedeckungsgrad in Achtel und Wolkenuntergrenze
So, 19.08. 11:30 2(8700m) 6(9000m)
So, 19.08. 11:10 3(8700m) 4(9000m)
So, 19.08. 11:00 4(9000m) 4(9000m)
So, 19.08. 10:50 4(9000m) 4(9000m)
So, 19.08. 10:40 5(9000m) 6(9000m)
So, 19.08. 10:30 3(9000m) 5(9000m)
So, 19.08. 10:00 2(9000m)
So, 19.08. 9:30 keine Wolken
So, 19.08. 9:00 keine Wolken
So, 19.08. 8:30 keine Wolken
So, 19.08. 8:00 keine Wolken
Ortszeit Luftdruck NN (hPa) Tendenz (hPa in 3 Std.)
So, 19.08. 8:00 1021 + 0,6
So, 19.08. 2:00 1021 + 0,1
Sa, 18.08. 20:00 1019 + 0,3
Sa, 18.08. 14:00 1018 - 0,7
Sa, 18.08. 8:00 1019 + 1,2
Sa, 18.08. 2:00 1017 + 1,1
Fr, 17.08. 20:00 1013 + 0,2
Fr, 17.08. 14:00 1013 - 0,5
Ortszeit Luftdruck NN (hPa) Tendenz (hPa in 3 Std.)
So, 19.08. 11:30 1019 - 0,3
So, 19.08. 11:10 1020 keine Meldung
So, 19.08. 11:00 1020 + 0,1
So, 19.08. 10:50 1020 keine Meldung
So, 19.08. 10:40 1020 keine Meldung
So, 19.08. 10:30 1020 + 0,2
So, 19.08. 10:00 1020 + 0,3
So, 19.08. 9:30 1020 + 0,4
So, 19.08. 9:00 1021 + 0,5
So, 19.08. 8:30 1021 + 0,7
So, 19.08. 8:00 1021 + 0,6
Ortszeit Schneehöhe (cm)
So, 19.08. 8:00 -
So, 19.08. 2:00 -
Sa, 18.08. 20:00 -
Sa, 18.08. 14:00 -
Sa, 18.08. 8:00 -
Sa, 18.08. 2:00 -
Fr, 17.08. 20:00 -
Fr, 17.08. 14:00 -
Ortszeit Schneehöhe (cm)
So, 19.08. 11:30 -
So, 19.08. 11:10 -
So, 19.08. 11:00 -
So, 19.08. 10:50 -
So, 19.08. 10:40 -
So, 19.08. 10:30 -
So, 19.08. 10:00 -
So, 19.08. 9:30 -
So, 19.08. 9:00 -
So, 19.08. 8:30 -
So, 19.08. 8:00 -
Link zu dieser Seite / Seite empfehlen

Das Wetter in ...